PWSweather.com
Personal Weather Stations
Station Observations

SkegnessGB

Lat: 53.147585, Lon: 0.345774

Elevation: 18

Station Type: Fine Offset WH3080

http://www.skegnessweather.info/

High Low Average
Temperature 43.7°F6.5°C 32.7°F0.4°C 38.3°F3.5°C
Dew Point 40.7°F4.8°C 30.9°F-0.6°C 36.4°F2.4°C
Winds 11.2 mph 18.0 kmh 0.5 mph 0.8 kmh 6.0 mph S9.7 kmh S
Wind Gusts 13.3 mph21.4 kmh 1.7 mph2.7 kmh 7.0 mph11.3 kmh
Humidity 98% 82% 93%
Pressure 30.16 in1021.3 mb 30.06 in1017.9 mb -
Precipitation 0.00 in0.0 mm - -
Hour Temp Dew Point Humidity Winds Wind Gusts Pressure Precip Precip Rate Daily Precip Total
12:00 AM 36.7°F2.6°C 32.3°F0.2°C 84% 6.7 mph SSW10.8 kmh SSW 7.6 mph12.2 kmh 30.16 in1021.3 mb 0.00 in0.0 mm 0.00 in0.0 mm 0.00 in0.0 mm
12:10 AM 36.3°F2.4°C 32.2°F0.1°C 85% 7.1 mph S11.4 kmh S 7.6 mph12.2 kmh 30.16 in1021.3 mb 0.00 in0.0 mm 0.00 in0.0 mm 0.00 in0.0 mm
12:20 AM 36.0°F2.2°C 32.2°F0.1°C 86% 6.8 mph SW10.9 kmh SW 7.6 mph12.2 kmh 30.16 in1021.3 mb 0.00 in0.0 mm 0.00 in0.0 mm 0.00 in0.0 mm
12:30 AM 35.8°F2.1°C 32.3°F0.2°C 87% 6.2 mph S10.0 kmh S 6.6 mph10.6 kmh 30.16 in1021.3 mb 0.00 in0.0 mm 0.00 in0.0 mm 0.00 in0.0 mm
12:40 AM 35.8°F2.1°C 32.6°F0.3°C 88% 7.0 mph SSW11.3 kmh SSW 7.6 mph12.2 kmh 30.16 in1021.3 mb 0.00 in0.0 mm 0.00 in0.0 mm 0.00 in0.0 mm
12:50 AM 35.6°F2.0°C 32.4°F0.2°C 88% 6.2 mph SSE10.0 kmh SSE 6.6 mph10.6 kmh 30.16 in1021.3 mb 0.00 in0.0 mm 0.00 in0.0 mm 0.00 in0.0 mm
01:00 AM 35.4°F1.9°C 32.5°F0.3°C 89% 7.4 mph S11.9 kmh S 9.1 mph14.6 kmh 30.16 in1021.3 mb 0.00 in0.0 mm 0.00 in0.0 mm 0.00 in0.0 mm
01:10 AM 35.4°F1.9°C 32.8°F0.4°C 90% 7.9 mph S12.7 kmh S 8.4 mph13.5 kmh 30.16 in1021.3 mb 0.00 in0.0 mm 0.00 in0.0 mm 0.00 in0.0 mm
01:20 AM 35.2°F1.8°C 32.6°F0.3°C 90% 6.4 mph S10.3 kmh S 8.4 mph13.5 kmh 30.16 in1021.3 mb 0.00 in0.0 mm 0.00 in0.0 mm 0.00 in0.0 mm
01:30 AM 35.1°F1.7°C 32.7°F0.4°C 91% 5.5 mph SE8.9 kmh SE 6.6 mph10.6 kmh 30.16 in1021.3 mb 0.00 in0.0 mm 0.00 in0.0 mm 0.00 in0.0 mm
01:40 AM 34.9°F1.6°C 32.8°F0.4°C 92% 5.4 mph S8.7 kmh S 5.9 mph9.5 kmh 30.16 in1021.3 mb 0.00 in0.0 mm 0.00 in0.0 mm 0.00 in0.0 mm
01:50 AM 34.7°F1.5°C 32.6°F0.3°C 92% 4.0 mph S6.4 kmh S 4.9 mph7.9 kmh 30.16 in1021.3 mb 0.00 in0.0 mm 0.00 in0.0 mm 0.00 in0.0 mm
02:00 AM 34.5°F1.4°C 32.4°F0.2°C 92% 3.7 mph SW6.0 kmh SW 4.9 mph7.9 kmh 30.16 in1021.3 mb 0.00 in0.0 mm 0.00 in0.0 mm 0.00 in0.0 mm
02:10 AM 34.7°F1.5°C 32.6°F0.3°C 92% 5.0 mph S8.0 kmh S 4.9 mph7.9 kmh 30.16 in1021.3 mb 0.00 in0.0 mm 0.00 in0.0 mm 0.00 in0.0 mm
02:20 AM 34.7°F1.5°C 32.6°F0.3°C 92% 6.1 mph S9.8 kmh S 6.6 mph10.6 kmh 30.16 in1021.3 mb 0.00 in0.0 mm 0.00 in0.0 mm 0.00 in0.0 mm
02:30 AM 34.7°F1.5°C 32.9°F0.5°C 93% 5.2 mph S8.4 kmh S 5.9 mph9.5 kmh 30.16 in1021.3 mb 0.00 in0.0 mm 0.00 in0.0 mm 0.00 in0.0 mm
02:40 AM 34.5°F1.4°C 32.7°F0.4°C 93% 5.1 mph S8.2 kmh S 6.6 mph10.6 kmh 30.15 in1021.0 mb 0.00 in0.0 mm 0.00 in0.0 mm 0.00 in0.0 mm
02:50 AM 34.3°F1.3°C 32.5°F0.3°C 93% 3.8 mph SW6.1 kmh SW 4.9 mph7.9 kmh 30.15 in1021.0 mb 0.00 in0.0 mm 0.00 in0.0 mm 0.00 in0.0 mm
03:00 AM 34.0°F1.1°C 32.2°F0.1°C 93% 2.8 mph SW4.5 kmh SW 3.4 mph5.5 kmh 30.16 in1021.3 mb 0.00 in0.0 mm 0.00 in0.0 mm 0.00 in0.0 mm
03:10 AM 33.6°F0.9°C 31.8°F-0.1°C 93% 3.7 mph SW6.0 kmh SW 3.4 mph5.5 kmh 30.15 in1021.0 mb 0.00 in0.0 mm 0.00 in0.0 mm 0.00 in0.0 mm
03:20 AM 33.6°F0.9°C 31.8°F-0.1°C 93% 3.0 mph S4.8 kmh S 3.4 mph5.5 kmh 30.15 in1021.0 mb 0.00 in0.0 mm 0.00 in0.0 mm 0.00 in0.0 mm
03:30 AM 33.3°F0.7°C 31.5°F-0.3°C 93% 2.4 mph WSW3.9 kmh WSW 3.4 mph5.5 kmh 30.15 in1021.0 mb 0.00 in0.0 mm 0.00 in0.0 mm 0.00 in0.0 mm
03:40 AM 33.3°F0.7°C 31.5°F-0.3°C 93% 2.6 mph SW4.2 kmh SW 4.2 mph6.8 kmh 30.15 in1021.0 mb 0.00 in0.0 mm 0.00 in0.0 mm 0.00 in0.0 mm
03:50 AM 32.9°F0.5°C 31.1°F-0.5°C 93% 2.1 mph SSW3.4 kmh SSW 3.4 mph5.5 kmh 30.15 in1021.0 mb 0.00 in0.0 mm 0.00 in0.0 mm 0.00 in0.0 mm
04:00 AM 32.7°F0.4°C 30.9°F-0.6°C 93% 2.4 mph SSW3.9 kmh SSW 3.4 mph5.5 kmh 30.15 in1021.0 mb 0.00 in0.0 mm 0.00 in0.0 mm 0.00 in0.0 mm
04:10 AM 32.7°F0.4°C 31.2°F-0.4°C 94% 3.3 mph SSW5.3 kmh SSW 4.2 mph6.8 kmh 30.14 in1020.7 mb 0.00 in0.0 mm 0.00 in0.0 mm 0.00 in0.0 mm
04:20 AM 32.9°F0.5°C 31.4°F-0.3°C 94% 4.0 mph SSE6.4 kmh SSE 4.2 mph6.8 kmh 30.14 in1020.7 mb 0.00 in0.0 mm 0.00 in0.0 mm 0.00 in0.0 mm
04:30 AM 33.4°F0.8°C 32.2°F0.1°C 95% 6.6 mph S10.6 kmh S 5.9 mph9.5 kmh 30.14 in1020.7 mb 0.00 in0.0 mm 0.00 in0.0 mm 0.00 in0.0 mm
04:40 AM 33.8°F1.0°C 32.5°F0.3°C 95% 8.0 mph S12.9 kmh S 7.6 mph12.2 kmh 30.14 in1020.7 mb 0.00 in0.0 mm 0.00 in0.0 mm 0.00 in0.0 mm
04:50 AM 33.8°F1.0°C 32.8°F0.4°C 96% 7.1 mph SSE11.4 kmh SSE 7.6 mph12.2 kmh 30.13 in1020.3 mb 0.00 in0.0 mm 0.00 in0.0 mm 0.00 in0.0 mm
05:00 AM 33.8°F1.0°C 32.8°F0.4°C 96% 7.2 mph S11.6 kmh S 7.6 mph12.2 kmh 30.14 in1020.7 mb 0.00 in0.0 mm 0.00 in0.0 mm 0.00 in0.0 mm
05:10 AM 33.8°F1.0°C 32.8°F0.4°C 96% 7.0 mph S11.3 kmh S 7.6 mph12.2 kmh 30.14 in1020.7 mb 0.00 in0.0 mm 0.00 in0.0 mm 0.00 in0.0 mm
05:20 AM 34.0°F1.1°C 33.0°F0.6°C 96% 6.7 mph SSE10.8 kmh SSE 6.6 mph10.6 kmh 30.13 in1020.3 mb 0.00 in0.0 mm 0.00 in0.0 mm 0.00 in0.0 mm
05:30 AM 34.2°F1.2°C 33.1°F0.6°C 96% 5.2 mph S8.4 kmh S 6.6 mph10.6 kmh 30.14 in1020.7 mb 0.00 in0.0 mm 0.00 in0.0 mm 0.00 in0.0 mm
05:40 AM 34.5°F1.4°C 33.5°F0.8°C 96% 6.9 mph SSW11.1 kmh SSW 8.4 mph13.5 kmh 30.14 in1020.7 mb 0.00 in0.0 mm 0.00 in0.0 mm 0.00 in0.0 mm
05:50 AM 34.3°F1.3°C 33.3°F0.7°C 96% 5.7 mph S9.2 kmh S 7.6 mph12.2 kmh 30.14 in1020.7 mb 0.00 in0.0 mm 0.00 in0.0 mm 0.00 in0.0 mm
06:00 AM 34.5°F1.4°C 33.8°F1.0°C 97% 6.1 mph S9.8 kmh S 5.9 mph9.5 kmh 30.14 in1020.7 mb 0.00 in0.0 mm 0.00 in0.0 mm 0.00 in0.0 mm
06:10 AM 34.5°F1.4°C 33.8°F1.0°C 97% 6.0 mph SSW9.7 kmh SSW 7.6 mph12.2 kmh 30.14 in1020.7 mb 0.00 in0.0 mm 0.00 in0.0 mm 0.00 in0.0 mm
06:20 AM 34.5°F1.4°C 33.8°F1.0°C 97% 6.2 mph SSW10.0 kmh SSW 7.6 mph12.2 kmh 30.15 in1021.0 mb 0.00 in0.0 mm 0.00 in0.0 mm 0.00 in0.0 mm
06:30 AM 34.3°F1.3°C 33.6°F0.9°C 97% 4.1 mph SW6.6 kmh SW 5.9 mph9.5 kmh 30.15 in1021.0 mb 0.00 in0.0 mm 0.00 in0.0 mm 0.00 in0.0 mm
06:40 AM 34.0°F1.1°C 33.0°F0.6°C 96% 2.7 mph WSW4.3 kmh WSW 3.4 mph5.5 kmh 30.16 in1021.3 mb 0.00 in0.0 mm 0.00 in0.0 mm 0.00 in0.0 mm
06:50 AM 33.6°F0.9°C 32.6°F0.3°C 96% 2.8 mph SSW4.5 kmh SSW 4.2 mph6.8 kmh 30.16 in1021.3 mb 0.00 in0.0 mm 0.00 in0.0 mm 0.00 in0.0 mm
07:00 AM 33.6°F0.9°C 32.6°F0.3°C 96% 2.3 mph WSW3.7 kmh WSW 3.4 mph5.5 kmh 30.16 in1021.3 mb 0.00 in0.0 mm 0.00 in0.0 mm 0.00 in0.0 mm
07:10 AM 33.6°F0.9°C 32.6°F0.3°C 96% 1.9 mph E3.1 kmh E 3.4 mph5.5 kmh 30.16 in1021.3 mb 0.00 in0.0 mm 0.00 in0.0 mm 0.00 in0.0 mm
07:20 AM 34.0°F1.1°C 33.2°F0.7°C 97% 4.4 mph SSE7.1 kmh SSE 4.9 mph7.9 kmh 30.16 in1021.3 mb 0.00 in0.0 mm 0.00 in0.0 mm 0.00 in0.0 mm
07:30 AM 34.3°F1.3°C 33.6°F0.9°C 97% 6.2 mph S10.0 kmh S 6.6 mph10.6 kmh 30.16 in1021.3 mb 0.00 in0.0 mm 0.00 in0.0 mm 0.00 in0.0 mm
07:40 AM 34.5°F1.4°C 33.8°F1.0°C 97% 5.7 mph S9.2 kmh S 6.6 mph10.6 kmh 30.16 in1021.3 mb 0.00 in0.0 mm 0.00 in0.0 mm 0.00 in0.0 mm
07:50 AM 34.5°F1.4°C 33.8°F1.0°C 97% 5.0 mph S8.0 kmh S 5.9 mph9.5 kmh 30.15 in1021.0 mb 0.00 in0.0 mm 0.00 in0.0 mm 0.00 in0.0 mm
08:00 AM 34.7°F1.5°C 33.9°F1.1°C 97% 6.3 mph SW10.1 kmh SW 7.6 mph12.2 kmh 30.16 in1021.3 mb 0.00 in0.0 mm 0.00 in0.0 mm 0.00 in0.0 mm
08:10 AM 34.9°F1.6°C 34.1°F1.2°C 97% 4.6 mph S7.4 kmh S 5.9 mph9.5 kmh 30.16 in1021.3 mb 0.00 in0.0 mm 0.00 in0.0 mm 0.00 in0.0 mm
08:20 AM 35.4°F1.9°C 34.9°F1.6°C 98% 7.6 mph S12.2 kmh S 8.4 mph13.5 kmh 30.16 in1021.3 mb 0.00 in0.0 mm 0.00 in0.0 mm 0.00 in0.0 mm
08:30 AM 35.8°F2.1°C 35.3°F1.8°C 98% 6.3 mph S10.1 kmh S 7.6 mph12.2 kmh 30.15 in1021.0 mb 0.00 in0.0 mm 0.00 in0.0 mm 0.00 in0.0 mm
08:40 AM 36.1°F2.3°C 35.6°F2.0°C 98% 6.3 mph SSW10.1 kmh SSW 6.6 mph10.6 kmh 30.15 in1021.0 mb 0.00 in0.0 mm 0.00 in0.0 mm 0.00 in0.0 mm
08:50 AM 36.5°F2.5°C 36.0°F2.2°C 98% 7.1 mph S11.4 kmh S 9.1 mph14.6 kmh 30.15 in1021.0 mb 0.00 in0.0 mm 0.00 in0.0 mm 0.00 in0.0 mm
09:00 AM 36.9°F2.7°C 36.3°F2.4°C 98% 7.4 mph S11.9 kmh S 10.8 mph17.4 kmh 30.14 in1020.7 mb 0.00 in0.0 mm 0.00 in0.0 mm 0.00 in0.0 mm
09:10 AM 37.0°F2.8°C 36.5°F2.5°C 98% 6.4 mph SSE10.3 kmh SSE 6.6 mph10.6 kmh 30.14 in1020.7 mb 0.00 in0.0 mm 0.00 in0.0 mm 0.00 in0.0 mm
09:20 AM 37.4°F3.0°C 36.9°F2.7°C 98% 8.7 mph S14.0 kmh S 12.5 mph20.1 kmh 30.13 in1020.3 mb 0.00 in0.0 mm 0.00 in0.0 mm 0.00 in0.0 mm
09:30 AM 37.6°F3.1°C 36.8°F2.7°C 97% 9.0 mph S14.5 kmh S 9.1 mph14.6 kmh 30.14 in1020.7 mb 0.00 in0.0 mm 0.00 in0.0 mm 0.00 in0.0 mm
09:40 AM 37.9°F3.3°C 37.2°F2.9°C 97% 7.7 mph SSW12.4 kmh SSW 9.1 mph14.6 kmh 30.14 in1020.7 mb 0.00 in0.0 mm 0.00 in0.0 mm 0.00 in0.0 mm
09:50 AM 39.6°F4.2°C 38.8°F3.8°C 97% 7.2 mph S11.6 kmh S 7.6 mph12.2 kmh 30.14 in1020.7 mb 0.00 in0.0 mm 0.00 in0.0 mm 0.00 in0.0 mm
10:00 AM 40.3°F4.6°C 38.7°F3.7°C 94% 10.7 mph S17.2 kmh S 11.8 mph19.0 kmh 30.14 in1020.7 mb 0.00 in0.0 mm 0.00 in0.0 mm 0.00 in0.0 mm
10:10 AM 40.5°F4.7°C 38.3°F3.5°C 92% 10.0 mph S16.1 kmh S 10.8 mph17.4 kmh 30.14 in1020.7 mb 0.00 in0.0 mm 0.00 in0.0 mm 0.00 in0.0 mm
10:20 AM 41.5°F5.3°C 39.4°F4.1°C 92% 7.6 mph S12.2 kmh S 9.1 mph14.6 kmh 30.14 in1020.7 mb 0.00 in0.0 mm 0.00 in0.0 mm 0.00 in0.0 mm
10:30 AM 43.0°F6.1°C 38.5°F3.6°C 84% 7.0 mph SSW11.3 kmh SSW 8.4 mph13.5 kmh 30.15 in1021.0 mb 0.00 in0.0 mm 0.00 in0.0 mm 0.00 in0.0 mm
10:40 AM 42.4°F5.8°C 38.8°F3.8°C 87% 9.8 mph S15.8 kmh S 10.1 mph16.3 kmh 30.15 in1021.0 mb 0.00 in0.0 mm 0.00 in0.0 mm 0.00 in0.0 mm
10:50 AM 42.4°F5.8°C 39.1°F3.9°C 88% 9.0 mph SSW14.5 kmh SSW 8.4 mph13.5 kmh 30.15 in1021.0 mb 0.00 in0.0 mm 0.00 in0.0 mm 0.00 in0.0 mm
11:00 AM 43.0°F6.1°C 37.9°F3.3°C 82% 10.5 mph S16.9 kmh S 9.1 mph14.6 kmh 30.15 in1021.0 mb 0.00 in0.0 mm 0.00 in0.0 mm 0.00 in0.0 mm
11:10 AM 43.3°F6.3°C 38.2°F3.4°C 82% 9.7 mph S15.6 kmh S 10.1 mph16.3 kmh 30.15 in1021.0 mb 0.00 in0.0 mm 0.00 in0.0 mm 0.00 in0.0 mm
11:20 AM 43.7°F6.5°C 38.6°F3.7°C 82% 8.4 mph SW13.5 kmh SW 10.1 mph16.3 kmh 30.15 in1021.0 mb 0.00 in0.0 mm 0.00 in0.0 mm 0.00 in0.0 mm
11:30 AM 43.5°F6.4°C 38.4°F3.6°C 82% 11.1 mph SSE17.9 kmh SSE 10.8 mph17.4 kmh 30.15 in1021.0 mb 0.00 in0.0 mm 0.00 in0.0 mm 0.00 in0.0 mm
11:40 AM 42.8°F6.0°C 37.7°F3.2°C 82% 11.2 mph SE18.0 kmh SE 11.8 mph19.0 kmh 30.14 in1020.7 mb 0.00 in0.0 mm 0.00 in0.0 mm 0.00 in0.0 mm
11:50 AM 42.3°F5.7°C 38.4°F3.6°C 86% 10.9 mph S17.5 kmh S 13.3 mph21.4 kmh 30.14 in1020.7 mb 0.00 in0.0 mm 0.00 in0.0 mm 0.00 in0.0 mm
12:00 PM 41.2°F5.1°C 37.9°F3.3°C 88% 10.3 mph SSE16.6 kmh SSE 11.8 mph19.0 kmh 30.15 in1021.0 mb 0.00 in0.0 mm 0.00 in0.0 mm 0.00 in0.0 mm
12:10 PM 40.1°F4.5°C 37.4°F3.0°C 90% 8.3 mph S13.4 kmh S 9.1 mph14.6 kmh 30.15 in1021.0 mb 0.00 in0.0 mm 0.00 in0.0 mm 0.00 in0.0 mm
12:20 PM 39.0°F3.9°C 36.9°F2.7°C 92% 10.0 mph S16.1 kmh S 10.1 mph16.3 kmh 30.15 in1021.0 mb 0.00 in0.0 mm 0.00 in0.0 mm 0.00 in0.0 mm
12:30 PM 39.0°F3.9°C 37.2°F2.9°C 93% 8.1 mph S13.0 kmh S 10.1 mph16.3 kmh 30.15 in1021.0 mb 0.00 in0.0 mm 0.00 in0.0 mm 0.00 in0.0 mm
12:40 PM 38.7°F3.7°C 36.8°F2.7°C 93% 7.6 mph S12.2 kmh S 10.1 mph16.3 kmh 30.15 in1021.0 mb 0.00 in0.0 mm 0.00 in0.0 mm 0.00 in0.0 mm
12:50 PM 38.5°F3.6°C 36.6°F2.6°C 93% 9.5 mph S15.3 kmh S 10.8 mph17.4 kmh 30.14 in1020.7 mb 0.00 in0.0 mm 0.00 in0.0 mm 0.00 in0.0 mm
01:00 PM 38.5°F3.6°C 36.9°F2.7°C 94% 11.2 mph S18.0 kmh S 11.8 mph19.0 kmh 30.14 in1020.7 mb 0.00 in0.0 mm 0.00 in0.0 mm 0.00 in0.0 mm
01:10 PM 38.5°F3.6°C 36.9°F2.7°C 94% 8.0 mph S12.9 kmh S 10.1 mph16.3 kmh 30.14 in1020.7 mb 0.00 in0.0 mm 0.00 in0.0 mm 0.00 in0.0 mm
01:20 PM 38.7°F3.7°C 37.4°F3.0°C 95% 9.0 mph S14.5 kmh S 10.1 mph16.3 kmh 30.14 in1020.7 mb 0.00 in0.0 mm 0.00 in0.0 mm 0.00 in0.0 mm
01:30 PM 39.0°F3.9°C 37.7°F3.2°C 95% 8.3 mph S13.4 kmh S 9.1 mph14.6 kmh 30.14 in1020.7 mb 0.00 in0.0 mm 0.00 in0.0 mm 0.00 in0.0 mm
01:40 PM 39.4°F4.1°C 38.3°F3.5°C 96% 7.7 mph S12.4 kmh S 7.6 mph12.2 kmh 30.14 in1020.7 mb 0.00 in0.0 mm 0.00 in0.0 mm 0.00 in0.0 mm
01:50 PM 39.4°F4.1°C 38.3°F3.5°C 96% 7.4 mph SW11.9 kmh SW 9.1 mph14.6 kmh 30.13 in1020.3 mb 0.00 in0.0 mm 0.00 in0.0 mm 0.00 in0.0 mm
02:00 PM 39.2°F4.0°C 37.9°F3.3°C 95% 9.1 mph S14.6 kmh S 10.1 mph16.3 kmh 30.13 in1020.3 mb 0.00 in0.0 mm 0.00 in0.0 mm 0.00 in0.0 mm
02:10 PM 39.4°F4.1°C 38.3°F3.5°C 96% 7.2 mph S11.6 kmh S 8.4 mph13.5 kmh 30.13 in1020.3 mb 0.00 in0.0 mm 0.00 in0.0 mm 0.00 in0.0 mm
02:20 PM 39.6°F4.2°C 38.5°F3.6°C 96% 6.2 mph SW10.0 kmh SW 9.1 mph14.6 kmh 30.13 in1020.3 mb 0.00 in0.0 mm 0.00 in0.0 mm 0.00 in0.0 mm
02:30 PM 40.1°F4.5°C 39.1°F3.9°C 96% 7.0 mph SW11.3 kmh SW 9.1 mph14.6 kmh 30.14 in1020.7 mb 0.00 in0.0 mm 0.00 in0.0 mm 0.00 in0.0 mm
02:40 PM 40.8°F4.9°C 39.8°F4.3°C 96% 5.3 mph SW8.5 kmh SW 5.9 mph9.5 kmh 30.13 in1020.3 mb 0.00 in0.0 mm 0.00 in0.0 mm 0.00 in0.0 mm
02:50 PM 41.4°F5.2°C 40.0°F4.4°C 95% 4.5 mph S7.2 kmh S 4.9 mph7.9 kmh 30.14 in1020.7 mb 0.00 in0.0 mm 0.00 in0.0 mm 0.00 in0.0 mm
03:00 PM 41.9°F5.5°C 40.6°F4.8°C 95% 4.4 mph S7.1 kmh S 6.6 mph10.6 kmh 30.14 in1020.7 mb 0.00 in0.0 mm 0.00 in0.0 mm 0.00 in0.0 mm
03:10 PM 42.3°F5.7°C 40.7°F4.8°C 94% 3.7 mph SSW6.0 kmh SSW 4.9 mph7.9 kmh 30.13 in1020.3 mb 0.00 in0.0 mm 0.00 in0.0 mm 0.00 in0.0 mm
03:20 PM 42.4°F5.8°C 40.6°F4.8°C 93% 4.2 mph SW6.8 kmh SW 4.9 mph7.9 kmh 30.13 in1020.3 mb 0.00 in0.0 mm 0.00 in0.0 mm 0.00 in0.0 mm
03:30 PM 42.6°F5.9°C 40.7°F4.8°C 93% 3.0 mph W4.8 kmh W 4.2 mph6.8 kmh 30.13 in1020.3 mb 0.00 in0.0 mm 0.00 in0.0 mm 0.00 in0.0 mm
03:40 PM 42.8°F6.0°C 39.2°F4.0°C 87% 4.8 mph SE7.7 kmh SE 6.6 mph10.6 kmh 30.13 in1020.3 mb 0.00 in0.0 mm 0.00 in0.0 mm 0.00 in0.0 mm
03:50 PM 42.8°F6.0°C 38.9°F3.8°C 86% 3.9 mph S6.3 kmh S 5.9 mph9.5 kmh 30.12 in1020.0 mb 0.00 in0.0 mm 0.00 in0.0 mm 0.00 in0.0 mm
04:00 PM 42.8°F6.0°C 38.9°F3.8°C 86% 3.7 mph S6.0 kmh S 4.9 mph7.9 kmh 30.12 in1020.0 mb 0.00 in0.0 mm 0.00 in0.0 mm 0.00 in0.0 mm
04:10 PM 42.6°F5.9°C 40.5°F4.7°C 92% 4.1 mph S6.6 kmh S 4.2 mph6.8 kmh 30.11 in1019.6 mb 0.00 in0.0 mm 0.00 in0.0 mm 0.00 in0.0 mm
04:20 PM 42.4°F5.8°C 40.3°F4.6°C 92% 3.9 mph SE6.3 kmh SE 4.2 mph6.8 kmh 30.11 in1019.6 mb 0.00 in0.0 mm 0.00 in0.0 mm 0.00 in0.0 mm
04:30 PM 42.3°F5.7°C 40.1°F4.5°C 92% 4.2 mph SSE6.8 kmh SSE 4.2 mph6.8 kmh 30.11 in1019.6 mb 0.00 in0.0 mm 0.00 in0.0 mm 0.00 in0.0 mm
04:40 PM 42.1°F5.6°C 39.9°F4.4°C 92% 3.1 mph SSE5.0 kmh SSE 3.4 mph5.5 kmh 30.11 in1019.6 mb 0.00 in0.0 mm 0.00 in0.0 mm 0.00 in0.0 mm
04:50 PM 41.9°F5.5°C 39.7°F4.3°C 92% 1.9 mph SE3.1 kmh SE 2.5 mph4.0 kmh 30.10 in1019.3 mb 0.00 in0.0 mm 0.00 in0.0 mm 0.00 in0.0 mm
05:00 PM 41.7°F5.4°C 39.6°F4.2°C 92% 1.1 mph SE1.8 kmh SE 2.5 mph4.0 kmh 30.11 in1019.6 mb 0.00 in0.0 mm 0.00 in0.0 mm 0.00 in0.0 mm
05:10 PM 41.4°F5.2°C 39.5°F4.2°C 93% 1.8 mph SSE2.9 kmh SSE 3.4 mph5.5 kmh 30.10 in1019.3 mb 0.00 in0.0 mm 0.00 in0.0 mm 0.00 in0.0 mm
05:20 PM 41.4°F5.2°C 39.5°F4.2°C 93% 2.2 mph SSE3.5 kmh SSE 3.4 mph5.5 kmh 30.11 in1019.6 mb 0.00 in0.0 mm 0.00 in0.0 mm 0.00 in0.0 mm
05:30 PM 41.2°F5.1°C 39.3°F4.1°C 93% 2.1 mph SE3.4 kmh SE 4.2 mph6.8 kmh 30.11 in1019.6 mb 0.00 in0.0 mm 0.00 in0.0 mm 0.00 in0.0 mm
05:40 PM 41.0°F5.0°C 39.1°F3.9°C 93% 1.4 mph N2.3 kmh N 4.2 mph6.8 kmh 30.11 in1019.6 mb 0.00 in0.0 mm 0.00 in0.0 mm 0.00 in0.0 mm
05:50 PM 40.5°F4.7°C 38.6°F3.7°C 93% 1.5 mph SSE2.4 kmh SSE 2.5 mph4.0 kmh 30.11 in1019.6 mb 0.00 in0.0 mm 0.00 in0.0 mm 0.00 in0.0 mm
06:00 PM 40.1°F4.5°C 38.2°F3.4°C 93% 0.5 mph S0.8 kmh S 1.7 mph2.7 kmh 30.11 in1019.6 mb 0.00 in0.0 mm 0.00 in0.0 mm 0.00 in0.0 mm
06:10 PM 40.1°F4.5°C 38.5°F3.6°C 94% 2.6 mph S4.2 kmh S 4.2 mph6.8 kmh 30.10 in1019.3 mb 0.00 in0.0 mm 0.00 in0.0 mm 0.00 in0.0 mm
06:20 PM 40.3°F4.6°C 38.7°F3.7°C 94% 2.7 mph SSE4.3 kmh SSE 4.2 mph6.8 kmh 30.10 in1019.3 mb 0.00 in0.0 mm 0.00 in0.0 mm 0.00 in0.0 mm
06:30 PM 40.3°F4.6°C 38.7°F3.7°C 94% 2.3 mph S3.7 kmh S 3.4 mph5.5 kmh 30.10 in1019.3 mb 0.00 in0.0 mm 0.00 in0.0 mm 0.00 in0.0 mm
06:40 PM 40.3°F4.6°C 38.7°F3.7°C 94% 2.3 mph S3.7 kmh S 4.2 mph6.8 kmh 30.10 in1019.3 mb 0.00 in0.0 mm 0.00 in0.0 mm 0.00 in0.0 mm
06:50 PM 40.3°F4.6°C 38.7°F3.7°C 94% 1.3 mph SSE2.1 kmh SSE 3.4 mph5.5 kmh 30.10 in1019.3 mb 0.00 in0.0 mm 0.00 in0.0 mm 0.00 in0.0 mm
07:00 PM 40.3°F4.6°C 38.7°F3.7°C 94% 1.7 mph S2.7 kmh S 4.9 mph7.9 kmh 30.10 in1019.3 mb 0.00 in0.0 mm 0.00 in0.0 mm 0.00 in0.0 mm
07:10 PM 40.5°F4.7°C 38.9°F3.8°C 94% 5.6 mph SE9.0 kmh SE 4.9 mph7.9 kmh 30.09 in1019.0 mb 0.00 in0.0 mm 0.00 in0.0 mm 0.00 in0.0 mm
07:20 PM 40.5°F4.7°C 38.9°F3.8°C 94% 2.8 mph S4.5 kmh S 4.9 mph7.9 kmh 30.10 in1019.3 mb 0.00 in0.0 mm 0.00 in0.0 mm 0.00 in0.0 mm
07:30 PM 40.5°F4.7°C 38.9°F3.8°C 94% 2.8 mph SE4.5 kmh SE 4.9 mph7.9 kmh 30.09 in1019.0 mb 0.00 in0.0 mm 0.00 in0.0 mm 0.00 in0.0 mm
07:40 PM 40.5°F4.7°C 38.9°F3.8°C 94% 3.4 mph S5.5 kmh S 4.9 mph7.9 kmh 30.09 in1019.0 mb 0.00 in0.0 mm 0.00 in0.0 mm 0.00 in0.0 mm
07:50 PM 40.5°F4.7°C 38.9°F3.8°C 94% 2.7 mph E4.3 kmh E 5.9 mph9.5 kmh 30.09 in1019.0 mb 0.00 in0.0 mm 0.00 in0.0 mm 0.00 in0.0 mm
08:00 PM 40.6°F4.8°C 39.0°F3.9°C 94% 4.1 mph SSE6.6 kmh SSE 4.9 mph7.9 kmh 30.09 in1019.0 mb 0.00 in0.0 mm 0.00 in0.0 mm 0.00 in0.0 mm
08:10 PM 40.6°F4.8°C 38.8°F3.8°C 93% 5.3 mph SSE8.5 kmh SSE 7.6 mph12.2 kmh 30.09 in1019.0 mb 0.00 in0.0 mm 0.00 in0.0 mm 0.00 in0.0 mm
08:20 PM 40.8°F4.9°C 39.0°F3.9°C 93% 8.3 mph S13.4 kmh S 8.4 mph13.5 kmh 30.08 in1018.6 mb 0.00 in0.0 mm 0.00 in0.0 mm 0.00 in0.0 mm
08:30 PM 40.8°F4.9°C 38.7°F3.7°C 92% 9.2 mph SE14.8 kmh SE 10.1 mph16.3 kmh 30.08 in1018.6 mb 0.00 in0.0 mm 0.00 in0.0 mm 0.00 in0.0 mm
08:40 PM 40.6°F4.8°C 38.5°F3.6°C 92% 8.4 mph S13.5 kmh S 8.4 mph13.5 kmh 30.08 in1018.6 mb 0.00 in0.0 mm 0.00 in0.0 mm 0.00 in0.0 mm
08:50 PM 40.8°F4.9°C 38.7°F3.7°C 92% 9.0 mph SSW14.5 kmh SSW 10.8 mph17.4 kmh 30.08 in1018.6 mb 0.00 in0.0 mm 0.00 in0.0 mm 0.00 in0.0 mm
09:00 PM 40.8°F4.9°C 38.7°F3.7°C 92% 8.8 mph S14.2 kmh S 10.8 mph17.4 kmh 30.08 in1018.6 mb 0.00 in0.0 mm 0.00 in0.0 mm 0.00 in0.0 mm
09:10 PM 40.8°F4.9°C 38.7°F3.7°C 92% 10.6 mph S17.1 kmh S 9.1 mph14.6 kmh 30.08 in1018.6 mb 0.00 in0.0 mm 0.00 in0.0 mm 0.00 in0.0 mm
09:20 PM 40.6°F4.8°C 38.5°F3.6°C 92% 9.0 mph SSE14.5 kmh SSE 10.1 mph16.3 kmh 30.08 in1018.6 mb 0.00 in0.0 mm 0.00 in0.0 mm 0.00 in0.0 mm
09:30 PM 40.5°F4.7°C 38.3°F3.5°C 92% 8.1 mph SSE13.0 kmh SSE 9.1 mph14.6 kmh 30.08 in1018.6 mb 0.00 in0.0 mm 0.00 in0.0 mm 0.00 in0.0 mm
09:40 PM 40.3°F4.6°C 38.1°F3.4°C 92% 8.4 mph SSE13.5 kmh SSE 10.1 mph16.3 kmh 30.08 in1018.6 mb 0.00 in0.0 mm 0.00 in0.0 mm 0.00 in0.0 mm
09:50 PM 40.3°F4.6°C 38.1°F3.4°C 92% 8.4 mph SSW13.5 kmh SSW 9.1 mph14.6 kmh 30.07 in1018.3 mb 0.00 in0.0 mm 0.00 in0.0 mm 0.00 in0.0 mm
10:00 PM 40.1°F4.5°C 38.0°F3.3°C 92% 7.8 mph S12.6 kmh S 10.1 mph16.3 kmh 30.08 in1018.6 mb 0.00 in0.0 mm 0.00 in0.0 mm 0.00 in0.0 mm
10:10 PM 39.9°F4.4°C 38.1°F3.4°C 93% 6.6 mph S10.6 kmh S 8.4 mph13.5 kmh 30.07 in1018.3 mb 0.00 in0.0 mm 0.00 in0.0 mm 0.00 in0.0 mm
10:20 PM 39.9°F4.4°C 38.1°F3.4°C 93% 7.2 mph SSW11.6 kmh SSW 6.6 mph10.6 kmh 30.06 in1017.9 mb 0.00 in0.0 mm 0.00 in0.0 mm 0.00 in0.0 mm
10:30 PM 39.9°F4.4°C 38.1°F3.4°C 93% 8.1 mph S13.0 kmh S 8.4 mph13.5 kmh 30.07 in1018.3 mb 0.00 in0.0 mm 0.00 in0.0 mm 0.00 in0.0 mm
10:40 PM 39.9°F4.4°C 38.1°F3.4°C 93% 8.6 mph S13.8 kmh S 9.1 mph14.6 kmh 30.06 in1017.9 mb 0.00 in0.0 mm 0.00 in0.0 mm 0.00 in0.0 mm
10:50 PM 39.7°F4.3°C 37.9°F3.3°C 93% 7.4 mph S11.9 kmh S 8.4 mph13.5 kmh 30.06 in1017.9 mb 0.00 in0.0 mm 0.00 in0.0 mm 0.00 in0.0 mm
11:00 PM 39.6°F4.2°C 38.0°F3.3°C 94% 7.0 mph S11.3 kmh S 8.4 mph13.5 kmh 30.06 in1017.9 mb 0.00 in0.0 mm 0.00 in0.0 mm 0.00 in0.0 mm
11:10 PM 39.6°F4.2°C 38.0°F3.3°C 94% 7.0 mph S11.3 kmh S 8.4 mph13.5 kmh 30.06 in1017.9 mb 0.00 in0.0 mm 0.00 in0.0 mm 0.00 in0.0 mm
11:20 PM 39.6°F4.2°C 38.0°F3.3°C 94% 7.7 mph SSW12.4 kmh SSW 10.1 mph16.3 kmh 30.06 in1017.9 mb 0.00 in0.0 mm 0.00 in0.0 mm 0.00 in0.0 mm
11:30 PM 39.7°F4.3°C 38.2°F3.4°C 94% 6.8 mph S10.9 kmh S 7.6 mph12.2 kmh 30.06 in1017.9 mb 0.00 in0.0 mm 0.00 in0.0 mm 0.00 in0.0 mm
11:40 PM 39.7°F4.3°C 38.2°F3.4°C 94% 7.4 mph S11.9 kmh S 8.4 mph13.5 kmh 30.06 in1017.9 mb 0.00 in0.0 mm 0.00 in0.0 mm 0.00 in0.0 mm
11:50 PM 39.9°F4.4°C 38.6°F3.7°C 95% 7.9 mph SSW12.7 kmh SSW 8.4 mph13.5 kmh 30.06 in1017.9 mb 0.00 in0.0 mm 0.00 in0.0 mm 0.00 in0.0 mm